Jump to content


UNITED AIRLINES FLIGHT UA1727 FLOWN ON 09-12-2017 BY CAPTAIN JIM BOERMAN

Pilot StatsCaptain Jim Boerman (LDP136) • 4,648.3 total hours • 1,417 total flights [View Logbook]
FLIGHT DETAILS
StatusReceived and approved on 2017-09-12 at 14:09:37
Origin AirportCharleston AFB-Intl (KCHS) • Charleston, South Carolina, United States (45 feet MSL)
Filed Flight PlanFLIGHT PLANNER OFFLINE
Destination AirportChicago-OHare Intl (KORD) • Chicago, Illinois, United States (668 feet MSL)
Alternate AirportGen Mitchell Intl (KMKE) • Milwaukee, Wisconsin, United States (723 feet MSL)
AirlineUnited Airlines
AircraftAirbus A319 (319 / A319)
FS Aircraft UsedFeelthere A319 IAE United Merger
Cruising AltitudeFL360
Distance Flown661 nautical miles
Passengers Onboard68 passengers (54.84% full)
DEPARTURE DETAILS
Time Out12:50:04
Taxi Data139,201 lbs total with 14,969 lbs of fuel onboard
Takeoff Data12:59:10 (9 minutes after leaving gate/ramp) • 138,412 lbs total • 6° pitch at 162 knots
Departure METARKCHS 121556Z 21012G18KT 10SM FEW027 SCT040 27/21 A2984 RMK AO2 SLP102 T02720211
ARRIVAL DETAILS
Landing Data13:46:35 • 129,272 lbs total • 8° pitch doing 123 knots at a rate of -161.48 feet/minute with 4,156 lbs of fuel onboard
Time In13:58:38 (12 minutes after landing)
Ramp Weight128,387 lbs total
Total Fuel Used10,813 lbs
Total Block Time02:04:04 (2.1 hours) while 21 minutes were spent on the ground
Arrival METARKORD 121851Z 05010KT 10SM FEW200 BKN250 24/10 A2995 RMK AO2 SLP139 T02440100
MISCELLANEOUS DETAILS
LiveDISPATCH Version4.8.3.1
FS Version
FSUIPC Version4.93
OS VersionWindows 7 32-bit
Screen Resolution1920 x 1080
Pilot's CommentsNo Comments Reported
FLIGHT MAP